ADDS METAR Data INFO
IDs: Format: Raw Decoded Include TAF

Data at: 0437 UTC 22 Sep 2017

KRBD 220353Z AUTO 15010KT 10SM CLR 27/22 A2993 RMK AO2 SLP126 T02670217
KRBD 220253Z AUTO 15008KT 10SM CLR 27/21 A2992 RMK AO2 SLP121 T02720211 52022
KRBD 220153Z AUTO 16011G20KT 10SM CLR 28/21 A2990 RMK AO2 SLP116 T02830206
KRBD 220053Z 15016G26KT 10SM FEW060 29/22 A2987 RMK AO2 PK WND 14027/0032 SLP105 T02940217
KRBD 212353Z 14011G17KT 10SM CLR 33/19 A2985 RMK AO2 SLP098 T03330189 10361 20322 56004
KRBD 212253Z 15009G16KT 10SM FEW060 34/19 A2985 RMK AO2 SLP099 T03440189
KRBD 212153Z 14012G20KT 10SM FEW060 35/19 A2985 RMK AO2 SLP098 T03500194
KRBD 212053Z 13011KT 10SM FEW055 36/21 A2986 RMK AO2 SLP102 T03560206 58025
KRBD 211953Z 13013KT 10SM CLR 34/20 A2989 RMK AO2 SLP111 T03440200
KRBD 211853Z 17008G19KT 100V210 10SM FEW043 34/21 A2992 RMK AO2 SLP120 T03390211
KRBD 211753Z 16009G16KT 10SM FEW036 33/22 A2994 RMK AO2 SLP129 T03280222 10328 20256 58010
KRBD 211653Z VRB06KT 10SM CLR 31/23 A2996 RMK AO2 SLP136 T03060228
KRBD 211553Z 17007G18KT 100V200 10SM SCT025 SCT029 30/23 A2997 RMK AO2 SLP137 T03000228
KRBD 211453Z VRB06KT 10SM OVC019 28/23 A2997 RMK AO2 SLP139 T02780233 51015
KRBD 211353Z 15007KT 8SM BKN017 27/23 A2996 RMK AO2 SLP135 T02670233
KRBD 211253Z 15007KT 9SM OVC017 26/23 A2995 RMK AO2 SLP131 T02560233
KRBD 211236Z 15006KT 9SM BKN015 26/23 A2994 RMK AO2 T02560233
KRBD 211153Z 15007KT 10SM CLR 26/23 A2993 RMK AO2 SLP124 T02560228 10278 20256 53011
KRBD 211053Z AUTO 18009G16KT 10SM FEW020 26/23 A2991 RMK AO2 SLP119 T02610228
KRBD 211043Z AUTO 18009G17KT 10SM SCT019 26/23 A2991 RMK AO2 T02610228
KRBD 211029Z AUTO 18010G20KT 150V220 10SM BKN019 26/23 A2991 RMK AO2 T02610228
KRBD 210953Z AUTO 18009G15KT 150V220 10SM CLR 26/23 A2990 RMK AO2 SLP116 T02610228
KRBD 210853Z AUTO 17008G17KT 10SM CLR 27/23 A2989 RMK AO2 SLP113 T02670233 55000
KRBD 210753Z AUTO 16009G17KT 10SM CLR 27/23 A2989 RMK AO2 SLP112 T02670233
KRBD 210653Z AUTO 16010KT 10SM CLR 27/23 A2989 RMK AO2 SLP113 T02720228
KRBD 210553Z AUTO 15009KT 10SM CLR 28/22 A2990 RMK AO2 SLP113 T02780222 10339 20278 403610250 50008
KRBD 210453Z AUTO 15009G18KT 10SM CLR 29/22 A2990 RMK AO2 SLP114 T02890217
KRBD 210353Z AUTO 16007KT 10SM CLR 30/21 A2990 RMK AO2 SLP113 T03000211
KRBD 210253Z AUTO 15007KT 10SM CLR 31/21 A2987 RMK AO2 SLP105 T03060211 53019
KRBD 210153Z AUTO 15007KT 100V170 10SM CLR 31/21 A2985 RMK AO2 SLP099 T03110211
KRBD 210053Z 15010G16KT 10SM CLR 33/21 A2982 RMK AO2 SLP088 T03280211
KRBD 202353Z 17010G17KT 10SM CLR 34/21 A2981 RMK AO2 SLP086 T03390206 10361 20328 55002
KRBD 202253Z 17009G16KT 10SM FEW060 35/21 A2981 RMK AO2 SLP085 T03500211
KRBD 202153Z 15012G21KT 10SM FEW060 35/21 A2981 RMK AO2 SLP084 T03500211
KRBD 202053Z 15012G17KT 10SM FEW055 36/22 A2982 RMK AO2 SLP087 T03610217 56020
KRBD 201953Z 16012G22KT 10SM CLR 35/22 A2984 RMK AO2 SLP093 T03500217
KRBD 201853Z 16013G21KT 10SM CLR 34/22 A2985 RMK AO2 SLP099 T03440222
KRBD 201753Z 19009G20KT 170V230 10SM CLR 33/22 A2988 RMK AO2 SLP107 T03280222 10333 20250 58010
KRBD 201653Z 16013G19KT 10SM CLR 32/22 A2990 RMK AO2 SLP114 T03220222